Time;durP1;ratioP1;P1;durP2;ratioP2;P2;SDS_P1;SDS_P2;PMS_P1;PMS_P2;Temp;Humidity;BMP_temperature;BMP_pressure;BME280_temperature;BME280_humidity;BME280_pressure;Samples;Min_cycle;Max_cycle;Signal;HPM_P1;HPM_P2
2022/06/07 00:01:39;;;;;;;8.15;3.88;;;16.30;99.90;;;;;;5045187;28;20041;-72
2022/06/07 00:04:06;;;;;;;8.13;4.40;;;16.30;99.90;;;;;;5052602;28;20041;-73
2022/06/07 00:06:33;;;;;;;6.35;4.43;;;16.10;99.90;;;;;;5053863;28;20099;-73
2022/06/07 00:09:00;;;;;;;7.80;4.50;;;16.10;99.90;;;;;;5053941;28;20044;-73
2022/06/07 00:11:26;;;;;;;6.20;4.63;;;16.00;99.90;;;;;;5045028;28;20036;-74
2022/06/07 00:13:53;;;;;;;5.47;4.35;;;16.00;99.90;;;;;;5053516;28;20493;-73
2022/06/07 00:16:20;;;;;;;8.82;4.85;;;16.10;99.90;;;;;;5053105;28;20045;-73
2022/06/07 00:18:47;;;;;;;6.70;3.80;;;16.10;99.90;;;;;;5045176;28;20045;-73
2022/06/07 00:21:14;;;;;;;3.40;3.10;;;16.10;99.90;;;;;;5053191;28;20052;-73
2022/06/07 00:23:40;;;;;;;7.63;3.45;;;16.10;99.90;;;;;;5053400;28;20041;-73
2022/06/07 00:26:08;;;;;;;5.95;3.97;;;16.10;99.90;;;;;;5053414;28;20037;-72
2022/06/07 00:28:35;;;;;;;8.88;3.92;;;16.10;99.90;;;;;;5045107;28;20497;-72
2022/06/07 00:31:02;;;;;;;;;;;16.00;99.90;;;;;;5053486;28;20033;-73
2022/06/07 00:33:29;;;;;;;5.20;3.28;;;16.00;99.90;;;;;;5053125;28;19928;-72
2022/06/07 00:35:56;;;;;;;5.00;3.70;;;16.00;99.90;;;;;;5035434;28;20163;-72
2022/06/07 00:38:22;;;;;;;6.22;3.20;;;16.00;99.90;;;;;;5035579;28;20095;-72
2022/06/07 00:40:49;;;;;;;8.02;4.00;;;16.00;99.90;;;;;;5052698;28;20037;-72
2022/06/07 00:43:16;;;;;;;4.13;3.50;;;16.00;99.90;;;;;;5051947;28;20044;-73
2022/06/07 00:45:43;;;;;;;4.60;3.70;;;16.00;99.90;;;;;;5035177;28;20091;-72
2022/06/07 00:48:10;;;;;;;7.60;4.20;;;16.00;99.90;;;;;;5051676;28;20045;-72
2022/06/07 00:50:49;;;;;;;5.53;4.45;;;16.00;99.90;;;;;;5052711;28;20505;-73
2022/06/07 00:53:32;;;;;;;6.90;4.53;;;16.00;99.90;;;;;;5051554;28;20505;-72
2022/06/07 00:56:15;;;;;;;5.93;4.40;;;16.00;99.90;;;;;;5047131;28;20051;-72
2022/06/07 00:58:42;;;;;;;7.88;4.40;;;16.00;99.90;;;;;;5051344;28;20041;-71
2022/06/07 01:01:08;;;;;;;7.85;4.82;;;16.00;99.90;;;;;;5051280;28;20091;-73
2022/06/07 01:03:39;;;;;;;8.63;4.63;;;16.00;99.90;;;;;;5051338;28;20452;-73
2022/06/07 01:11:40;;;;;;;5.53;4.10;;;16.00;99.90;;;;;;5067695;28;20432;-73
2022/06/07 01:14:07;;;;;;;9.20;4.72;;;16.00;99.90;;;;;;5044243;28;20037;-73
2022/06/07 01:16:33;;;;;;;9.93;5.30;;;16.00;99.90;;;;;;5051377;28;20045;-73
2022/06/07 01:19:01;;;;;;;8.25;4.93;;;15.90;99.90;;;;;;5034677;28;20064;-73
2022/06/07 01:21:37;;;;;;;27.15;6.00;;;15.90;99.90;;;;;;5047520;28;20048;-73
2022/06/07 01:24:07;;;;;;;9.15;4.82;;;15.80;99.90;;;;;;5047423;28;20103;-74
2022/06/07 01:26:58;;;;;;;6.38;5.13;;;15.80;99.90;;;;;;5030238;28;20429;-74
2022/06/07 01:29:25;;;;;;;6.57;4.07;;;15.80;99.90;;;;;;5035139;28;20072;-72
2022/06/07 01:31:52;;;;;;;6.93;4.10;;;15.80;99.90;;;;;;5047035;28;20056;-72
2022/06/07 01:34:22;;;;;;;6.18;3.20;;;15.80;99.90;;;;;;5047250;28;20049;-71
2022/06/07 01:36:49;;;;;;;3.85;2.85;;;15.70;99.90;;;;;;5031163;28;20045;-71
2022/06/07 01:42:02;;;;;;;5.00;2.88;;;15.70;99.90;;;;;;5051697;28;20044;-72
2022/06/07 01:44:37;;;;;;;4.57;3.17;;;15.60;99.90;;;;;;5050511;28;20056;-72
2022/06/07 01:47:07;;;;;;;4.03;3.08;;;15.50;99.90;;;;;;5050855;28;20556;-73
2022/06/07 01:49:37;;;;;;;5.78;3.33;;;15.50;99.90;;;;;;5041785;28;20045;-72
2022/06/07 01:52:06;;;;;;;7.07;2.67;;;15.50;99.90;;;;;;5047062;28;20073;-71
2022/06/07 01:54:37;;;;;;;4.30;3.10;;;15.50;99.90;;;;;;5030497;28;20052;-71
2022/06/07 01:57:05;;;;;;;5.25;3.25;;;15.50;99.90;;;;;;5045467;28;20052;-71
2022/06/07 01:59:33;;;;;;;5.20;3.20;;;15.50;99.90;;;;;;5046873;28;20045;-71
2022/06/07 02:02:01;;;;;;;7.00;3.85;;;15.80;99.90;;;;;;5050201;28;20045;-71
2022/06/07 02:04:27;;;;;;;;;;;15.50;99.90;;;;;;5050880;28;20045;-71
2022/06/07 02:06:54;;;;;;;5.50;2.90;;;15.50;99.90;;;;;;5042361;28;19935;-71
2022/06/07 02:09:29;;;;;;;5.25;3.53;;;15.50;99.90;;;;;;5050170;28;20711;-70
2022/06/07 02:11:58;;;;;;;11.25;4.30;;;15.40;99.90;;;;;;5049952;28;20394;-71
2022/06/07 02:14:26;;;;;;;5.93;3.80;;;15.40;99.90;;;;;;5050270;28;20051;-71
2022/06/07 02:16:53;;;;;;;7.45;3.85;;;15.40;99.90;;;;;;5039012;28;20049;-71
2022/06/07 02:19:25;;;;;;;5.07;3.58;;;15.40;99.90;;;;;;5030318;28;20046;-72
2022/06/07 02:21:51;;;;;;;5.95;3.95;;;15.40;99.90;;;;;;5029870;28;20103;-72
2022/06/07 02:24:18;;;;;;;5.68;3.47;;;15.50;99.90;;;;;;5032189;28;20072;-72
2022/06/07 02:26:56;;;;;;;5.53;3.30;;;15.50;99.90;;;;;;5041269;28;20049;-72
2022/06/07 02:29:28;;;;;;;4.55;3.58;;;15.50;99.90;;;;;;5051480;28;20056;-73
2022/06/07 02:32:00;;;;;;;4.35;3.72;;;15.50;99.90;;;;;;5049547;28;20044;-72
2022/06/07 02:34:27;;;;;;;11.73;4.28;;;15.50;99.90;;;;;;5049747;28;20087;-72
2022/06/07 02:36:57;;;;;;;4.53;3.25;;;15.50;99.90;;;;;;5041675;28;20040;-73
2022/06/07 02:39:24;;;;;;;6.55;3.35;;;15.40;99.90;;;;;;5056523;28;20049;-73
2022/06/07 02:41:53;;;;;;;8.60;3.40;;;15.40;99.90;;;;;;5056252;28;20052;-73
2022/06/07 02:44:20;;;;;;;10.98;4.03;;;15.40;99.90;;;;;;5051100;28;20049;-72
2022/06/07 02:46:48;;;;;;;8.35;4.18;;;15.40;99.90;;;;;;5054939;28;20056;-71
2022/06/07 02:49:16;;;;;;;11.68;4.72;;;15.40;99.90;;;;;;5056675;28;20075;-67
2022/06/07 02:51:44;;;;;;;11.52;5.10;;;15.40;99.90;;;;;;5056084;28;20534;-70
2022/06/07 02:54:11;;;;;;;9.68;4.68;;;15.40;99.90;;;;;;5056414;28;20094;-70
2022/06/07 02:56:38;;;;;;;14.27;5.20;;;15.30;99.90;;;;;;5056454;28;20048;-71
2022/06/07 02:59:06;;;;;;;13.30;4.80;;;15.30;99.90;;;;;;5056208;28;20071;-72
2022/06/07 03:01:33;;;;;;;6.60;5.03;;;15.30;99.90;;;;;;5052770;28;20502;-73
2022/06/07 03:04:02;;;;;;;8.73;4.95;;;15.30;99.90;;;;;;5064665;28;20036;-73
2022/06/07 03:06:33;;;;;;;9.00;5.20;;;15.30;99.90;;;;;;5057926;28;20044;-73
2022/06/07 03:09:00;;;;;;;6.72;4.75;;;15.20;99.90;;;;;;5056342;28;20136;-73
2022/06/07 03:11:28;;;;;;;11.13;4.88;;;15.20;99.90;;;;;;5055633;28;20413;-73
2022/06/07 03:13:57;;;;;;;6.75;4.22;;;15.30;99.90;;;;;;5056282;28;20057;-73
2022/06/07 03:16:27;;;;;;;10.07;4.60;;;15.30;99.90;;;;;;5056407;28;20127;-72
2022/06/07 03:18:58;;;;;;;7.53;4.60;;;15.30;99.90;;;;;;5056271;28;20049;-72
2022/06/07 03:21:25;;;;;;;8.80;5.15;;;15.30;99.90;;;;;;5047454;28;20098;-72
2022/06/07 03:23:52;;;;;;;10.50;5.85;;;15.30;99.90;;;;;;5056218;28;20041;-72
2022/06/07 03:26:19;;;;;;;9.93;6.03;;;15.30;99.90;;;;;;5056248;28;20055;-72
2022/06/07 03:28:52;;;;;;;8.68;5.50;;;15.30;99.90;;;;;;5056190;28;20041;-72
2022/06/07 03:31:21;;;;;;;10.65;5.57;;;15.30;99.90;;;;;;5055730;28;20104;-72
2022/06/07 03:33:53;;;;;;;13.02;6.82;;;15.20;99.90;;;;;;5055917;28;20045;-72
2022/06/07 03:36:24;;;;;;;12.65;6.15;;;15.20;99.90;;;;;;5056077;28;20415;-72
2022/06/07 03:38:52;;;;;;;9.10;5.60;;;15.20;99.90;;;;;;5056372;28;20053;-71
2022/06/07 03:41:25;;;;;;;6.63;5.35;;;15.20;99.90;;;;;;5055817;28;20049;-71
2022/06/07 03:44:00;;;;;;;7.35;5.55;;;15.20;99.90;;;;;;5056082;28;20048;-71
2022/06/07 03:46:30;;;;;;;7.82;5.63;;;15.10;99.90;;;;;;5047603;28;20048;-71
2022/06/07 03:48:57;;;;;;;12.32;6.32;;;15.10;99.90;;;;;;5054784;28;20065;-71
2022/06/07 03:51:28;;;;;;;11.45;7.43;;;15.20;99.90;;;;;;5052166;28;20037;-71
2022/06/07 03:53:56;;;;;;;9.73;6.55;;;15.10;99.90;;;;;;5052438;28;20033;-71
2022/06/07 03:56:26;;;;;;;9.82;6.78;;;15.10;99.90;;;;;;5052822;28;20052;-71
2022/06/07 03:58:57;;;;;;;9.50;7.13;;;15.10;99.90;;;;;;5052871;28;20501;-69
2022/06/07 04:01:24;;;;;;;;;;;15.10;99.90;;;;;;5054117;28;20041;-71
2022/06/07 04:03:55;;;;;;;12.52;7.47;;;15.10;99.90;;;;;;5052707;28;21291;-70
2022/06/07 04:06:32;;;;;;;9.05;7.05;;;15.10;99.90;;;;;;5052875;28;20124;-70
2022/06/07 04:09:07;;;;;;;10.82;7.03;;;15.20;99.90;;;;;;5052355;28;20056;-71
2022/06/07 04:11:38;;;;;;;14.40;8.50;;;15.20;99.90;;;;;;5051810;28;20056;-71
2022/06/07 04:14:04;;;;;;;9.70;7.32;;;15.20;99.90;;;;;;5052242;28;20053;-71
2022/06/07 04:16:31;;;;;;;11.70;6.82;;;15.20;99.90;;;;;;5049184;28;20047;-71
2022/06/07 04:19:06;;;;;;;10.13;7.63;;;15.20;99.90;;;;;;5052259;28;20068;-71
2022/06/07 04:21:33;;;;;;;13.55;8.80;;;15.20;99.90;;;;;;5045408;28;20045;-70
2022/06/07 04:24:10;;;;;;;12.75;8.45;;;15.10;99.90;;;;;;5044219;28;20041;-71
2022/06/07 04:26:38;;;;;;;11.65;8.57;;;15.20;99.90;;;;;;5041587;28;20132;-71
2022/06/07 04:29:06;;;;;;;10.20;7.78;;;15.20;99.90;;;;;;5042606;28;20812;-71
2022/06/07 04:31:34;;;;;;;9.25;7.25;;;15.10;99.90;;;;;;5039363;28;20033;-71
2022/06/07 04:34:07;;;;;;;12.15;7.13;;;15.10;99.90;;;;;;5040340;28;20484;-72
2022/06/07 04:36:36;;;;;;;13.05;7.57;;;15.20;99.90;;;;;;5042314;28;20489;-71
2022/06/07 04:39:05;;;;;;;12.00;7.50;;;15.20;99.90;;;;;;5043950;28;20041;-70
2022/06/07 04:41:39;;;;;;;12.80;7.57;;;15.20;99.90;;;;;;5042237;28;20461;-70
2022/06/07 04:44:09;;;;;;;20.42;9.80;;;15.30;99.90;;;;;;5036647;28;20051;-70
2022/06/07 04:46:36;;;;;;;17.73;9.13;;;15.20;99.90;;;;;;5044246;28;20073;-70
2022/06/07 04:49:05;;;;;;;11.75;8.25;;;15.30;99.90;;;;;;5044473;28;20044;-70
2022/06/07 04:51:35;;;;;;;17.60;9.48;;;15.20;99.90;;;;;;5051223;28;20416;-70
2022/06/07 04:54:20;;;;;;;14.02;9.52;;;15.20;99.90;;;;;;5048425;28;20133;-70
2022/06/07 04:56:49;;;;;;;12.73;8.43;;;15.20;99.90;;;;;;5056308;28;20090;-71
2022/06/07 04:59:16;;;;;;;14.23;8.90;;;15.20;99.90;;;;;;5031735;28;20037;-70
2022/06/07 05:01:52;;;;;;;14.88;9.20;;;15.20;99.90;;;;;;5038858;28;20048;-70
2022/06/07 05:04:23;;;;;;;13.52;9.68;;;15.20;99.90;;;;;;5042532;28;20493;-71
2022/06/07 05:06:52;;;;;;;17.63;10.35;;;15.20;99.90;;;;;;5039996;28;20048;-71
2022/06/07 05:09:38;;;;;;;10.98;8.13;;;15.20;99.90;;;;;;5029020;28;20068;-71
2022/06/07 05:12:10;;;;;;;11.20;8.25;;;15.20;99.90;;;;;;5045407;28;20448;-71
2022/06/07 05:14:45;;;;;;;12.05;8.52;;;15.20;99.90;;;;;;5040245;28;20453;-71
2022/06/07 05:17:16;;;;;;;13.05;8.52;;;15.20;99.90;;;;;;5035558;28;20056;-71
2022/06/07 05:19:47;;;;;;;14.93;9.77;;;15.20;99.90;;;;;;5047401;28;20059;-72
2022/06/07 05:22:16;;;;;;;17.70;10.15;;;15.20;99.90;;;;;;5044394;28;20037;-71
2022/06/07 05:24:51;;;;;;;17.02;10.43;;;15.30;99.90;;;;;;5043865;28;20382;-72
2022/06/07 05:27:25;;;;;;;15.63;11.82;;;15.30;99.90;;;;;;5041116;28;20046;-72
2022/06/07 05:29:54;;;;;;;14.20;10.10;;;15.30;99.90;;;;;;5044361;28;20532;-71
2022/06/07 05:32:44;;;;;;;16.75;9.90;;;15.20;99.90;;;;;;5036481;28;20426;-71
2022/06/07 05:35:16;;;;;;;13.48;9.88;;;15.30;99.90;;;;;;5032702;28;20041;-71
2022/06/07 05:37:56;;;;;;;13.20;9.48;;;15.30;99.90;;;;;;5079769;22;20046;-68
2022/06/07 05:40:25;;;;;;;15.32;10.70;;;15.30;99.90;;;;;;5068144;28;20040;-68
2022/06/07 05:42:54;;;;;;;18.48;10.77;;;15.30;99.90;;;;;;5073073;28;20048;-68
2022/06/07 05:45:35;;;;;;;10.95;9.10;;;15.30;99.90;;;;;;5070271;28;20074;-68
2022/06/07 05:48:09;;;;;;;14.30;9.68;;;15.30;99.90;;;;;;5089175;28;20043;-68
2022/06/07 05:50:44;;;;;;;11.57;9.52;;;15.30;99.90;;;;;;5090075;28;20091;-68
2022/06/07 05:53:11;;;;;;;11.68;9.07;;;15.30;99.90;;;;;;5062536;28;20127;-68
2022/06/07 05:55:40;;;;;;;16.45;9.85;;;15.30;99.90;;;;;;5060639;28;20052;-68
2022/06/07 05:58:07;;;;;;;13.18;9.35;;;15.40;99.90;;;;;;5070404;28;20532;-68
2022/06/07 06:00:36;;;;;;;13.27;8.98;;;15.40;99.90;;;;;;5053413;28;20577;-68
2022/06/07 06:03:06;;;;;;;15.32;8.82;;;15.40;99.90;;;;;;5061274;28;20691;-68
2022/06/07 06:05:38;;;;;;;11.40;8.30;;;15.40;99.90;;;;;;5040348;28;20108;-68
2022/06/07 06:11:13;;;;;;;12.90;8.23;;;15.50;99.90;;;;;;5077892;28;20149;-68
2022/06/07 06:13:46;;;;;;;12.23;8.63;;;15.50;99.90;;;;;;5088293;28;20557;-68
2022/06/07 06:16:18;;;;;;;17.30;10.20;;;15.60;99.90;;;;;;5068236;28;20052;-68
2022/06/07 06:18:51;;;;;;;16.02;9.30;;;15.60;99.90;;;;;;5060616;28;20397;-68
2022/06/07 06:21:23;;;;;;;13.20;10.18;;;15.70;99.90;;;;;;5067988;28;20044;-68
2022/06/07 06:23:50;;;;;;;14.55;8.80;;;15.80;99.90;;;;;;5090442;28;20044;-69
2022/06/07 06:26:19;;;;;;;14.40;9.45;;;15.80;99.90;;;;;;5057392;28;20044;-68
2022/06/07 06:28:48;;;;;;;11.98;8.43;;;15.80;99.90;;;;;;5062004;28;20500;-69
2022/06/07 06:31:16;;;;;;;13.20;8.55;;;15.80;99.90;;;;;;5089915;28;20105;-68
2022/06/07 06:33:50;;;;;;;10.52;7.57;;;15.90;99.90;;;;;;5090306;28;20036;-68
2022/06/07 06:36:24;;;;;;;14.27;8.55;;;15.90;99.90;;;;;;5057454;28;20439;-68
2022/06/07 06:38:51;;;;;;;11.75;8.07;;;16.00;99.90;;;;;;5050733;28;20047;-68
2022/06/07 06:41:28;;;;;;;13.20;8.73;;;16.00;99.90;;;;;;5050871;28;20059;-68
2022/06/07 06:43:58;;;;;;;14.32;8.93;;;16.20;99.90;;;;;;5068418;28;20520;-68
2022/06/07 06:46:39;;;;;;;13.73;8.48;;;16.40;99.90;;;;;;5064958;28;20044;-68
2022/06/07 06:49:07;;;;;;;12.30;7.95;;;16.40;99.90;;;;;;5089834;28;20045;-69
2022/06/07 06:51:36;;;;;;;13.40;8.38;;;16.50;99.90;;;;;;5050437;28;20056;-68
2022/06/07 06:54:04;;;;;;;11.10;8.25;;;16.60;99.90;;;;;;5064809;28;20056;-69
2022/06/07 06:56:38;;;;;;;7.43;6.30;;;16.60;99.90;;;;;;5073010;28;20527;-69
2022/06/07 06:59:13;;;;;;;7.78;4.95;;;16.70;99.90;;;;;;5090081;28;20113;-68
2022/06/07 07:01:43;;;;;;;7.63;5.35;;;16.70;99.90;;;;;;5068239;28;20463;-68
2022/06/07 07:04:13;;;;;;;8.43;5.53;;;16.70;99.90;;;;;;5064660;28;20050;-69
2022/06/07 07:06:41;;;;;;;7.13;5.50;;;16.70;99.90;;;;;;5089905;28;20496;-69
2022/06/07 07:09:09;;;;;;;10.27;6.38;;;16.60;99.90;;;;;;5073028;28;20405;-69
2022/06/07 07:11:43;;;;;;;7.50;5.75;;;16.60;99.90;;;;;;5061576;28;20135;-68
2022/06/07 07:14:11;;;;;;;4.85;4.03;;;16.60;99.90;;;;;;5066570;28;20040;-69
2022/06/07 07:16:41;;;;;;;4.65;3.65;;;16.60;99.90;;;;;;5072796;28;20040;-69
2022/06/07 07:19:10;;;;;;;8.30;4.70;;;16.80;99.90;;;;;;5086849;28;20044;-69
2022/06/07 07:21:41;;;;;;;9.02;4.55;;;16.90;99.90;;;;;;5063625;28;20044;-69
2022/06/07 07:24:13;;;;;;;5.85;4.15;;;17.00;99.90;;;;;;5091197;28;20127;-69
2022/06/07 07:26:46;;;;;;;5.18;4.55;;;17.10;99.90;;;;;;5093525;28;20139;-69
2022/06/07 07:29:16;;;;;;;4.13;3.33;;;17.10;99.90;;;;;;5085338;28;20037;-69
2022/06/07 07:31:44;;;;;;;5.63;3.65;;;17.10;99.90;;;;;;5059414;28;20052;-69
2022/06/07 07:34:14;;;;;;;2.67;2.40;;;17.20;99.90;;;;;;5073308;28;20047;-69
2022/06/07 07:36:48;;;;;;;6.00;3.20;;;17.20;99.90;;;;;;5056325;28;20044;-69
2022/06/07 07:39:23;;;;;;;5.22;2.85;;;17.30;99.90;;;;;;5064420;28;20040;-69
2022/06/07 07:41:52;;;;;;;4.80;2.90;;;17.40;99.90;;;;;;5059633;28;20714;-69
2022/06/07 07:44:21;;;;;;;4.18;2.83;;;17.60;99.90;;;;;;5056177;28;20076;-69
2022/06/07 07:46:53;;;;;;;3.88;2.80;;;17.80;99.90;;;;;;5063100;28;20451;-69
2022/06/07 07:49:21;;;;;;;5.90;2.38;;;18.00;99.90;;;;;;5070744;28;20140;-69
2022/06/07 07:51:50;;;;;;;3.20;2.22;;;18.00;99.90;;;;;;5075574;28;20049;-69
2022/06/07 07:54:22;;;;;;;3.95;2.65;;;18.10;99.90;;;;;;5071357;28;20062;-69
2022/06/07 07:56:49;;;;;;;3.75;2.42;;;18.20;99.90;;;;;;5067401;28;20044;-69
2022/06/07 07:59:20;;;;;;;5.20;2.72;;;18.20;99.90;;;;;;5093061;28;20048;-69
2022/06/07 08:01:50;;;;;;;2.40;2.20;;;18.20;99.90;;;;;;5086969;28;20040;-69
2022/06/07 08:04:18;;;;;;;7.10;2.40;;;18.20;99.90;;;;;;5058528;28;20037;-69
2022/06/07 08:06:48;;;;;;;4.28;1.77;;;18.20;99.90;;;;;;5074461;28;20569;-69
2022/06/07 08:09:16;;;;;;;3.42;1.70;;;18.20;99.90;;;;;;5093835;28;20044;-69
2022/06/07 08:11:44;;;;;;;4.20;1.95;;;18.20;99.90;;;;;;5084644;28;20036;-69
2022/06/07 08:14:16;;;;;;;3.95;2.13;;;18.10;99.90;;;;;;5087236;28;20036;-69
2022/06/07 08:16:43;;;;;;;5.25;1.92;;;18.10;99.90;;;;;;5093747;28;20040;-69
2022/06/07 08:19:11;;;;;;;7.07;2.22;;;17.90;99.90;;;;;;5088681;28;20047;-69
2022/06/07 08:21:38;;;;;;;;;;;17.80;99.90;;;;;;5085322;28;20036;-69
2022/06/07 08:24:05;;;;;;;4.00;1.98;;;17.70;99.90;;;;;;5093651;28;19927;-69
2022/06/07 08:26:32;;;;;;;3.35;2.10;;;17.70;99.90;;;;;;5093120;28;20047;-69
2022/06/07 08:28:59;;;;;;;;;;;17.80;99.90;;;;;;5087185;28;20043;-69
2022/06/07 08:31:28;;;;;;;2.40;1.90;;;17.90;99.90;;;;;;5084658;28;19931;-69
2022/06/07 08:39:27;;;;;;;5.43;2.20;;;18.10;99.90;;;;;;5081997;28;20404;-69
2022/06/07 08:42:33;;;;;;;4.13;2.35;;;18.30;99.90;;;;;;5092399;28;20451;-69
2022/06/07 08:45:26;;;;;;;4.03;2.17;;;18.30;99.90;;;;;;5093287;28;20055;-69
2022/06/07 08:48:09;;;;;;;3.30;1.83;;;18.30;99.90;;;;;;5086653;28;20412;-69
2022/06/07 08:50:44;;;;;;;3.55;2.67;;;18.30;99.90;;;;;;5089803;28;20059;-69
2022/06/07 08:53:13;;;;;;;7.82;5.03;;;17.90;99.90;;;;;;5093118;28;20041;-69
2022/06/07 08:55:46;;;;;;;7.78;6.30;;;17.50;99.90;;;;;;5067657;28;20094;-69
2022/06/07 08:58:18;;;;;;;8.90;6.90;;;17.30;99.90;;;;;;5086484;28;20068;-69
2022/06/07 09:00:51;;;;;;;8.35;6.80;;;17.20;99.90;;;;;;5092548;28;20056;-69
2022/06/07 09:03:52;;;;;;;8.63;7.57;;;17.10;99.90;;;;;;5087173;28;20047;-69
2022/06/07 09:06:25;;;;;;;10.98;7.82;;;16.90;99.90;;;;;;5081982;28;20493;-69
2022/06/07 09:08:55;;;;;;;11.98;9.10;;;16.80;99.90;;;;;;5092331;28;20051;-69
2022/06/07 09:14:25;;;;;;;16.33;9.48;;;16.50;99.90;;;;;;5082213;28;20501;-69
2022/06/07 09:16:55;;;;;;;17.60;9.73;;;16.30;99.90;;;;;;5076019;28;20427;-69
2022/06/07 09:19:26;;;;;;;16.23;10.80;;;16.20;99.90;;;;;;5069012;28;20036;-69
2022/06/07 09:22:00;;;;;;;19.58;11.68;;;16.10;99.90;;;;;;5082607;28;20044;-68
2022/06/07 09:24:37;;;;;;;19.50;12.13;;;16.00;99.90;;;;;;5092513;28;20047;-68
2022/06/07 09:27:11;;;;;;;19.67;11.38;;;15.80;99.90;;;;;;5092580;28;20052;-68
2022/06/07 09:29:41;;;;;;;16.92;10.45;;;15.60;99.90;;;;;;5074868;28;20086;-68
2022/06/07 09:32:10;;;;;;;19.70;10.82;;;15.40;99.90;;;;;;5083452;28;20093;-68
2022/06/07 09:34:48;;;;;;;24.65;10.18;;;15.20;99.90;;;;;;5092508;28;20047;-68
2022/06/07 09:37:20;;;;;;;20.42;6.63;;;15.00;99.90;;;;;;5089641;28;20420;-68
2022/06/07 09:39:53;;;;;;;8.77;4.80;;;14.80;99.90;;;;;;5083835;28;20048;-68
2022/06/07 09:42:25;;;;;;;4.63;2.75;;;14.60;99.90;;;;;;5092459;28;20059;-68
2022/06/07 09:44:57;;;;;;;4.78;2.47;;;14.40;99.90;;;;;;5092313;28;20055;-68
2022/06/07 09:47:26;;;;;;;4.07;2.22;;;14.40;99.90;;;;;;5085793;28;20044;-68
2022/06/07 09:50:33;;;;;;;4.22;1.83;;;14.30;99.90;;;;;;5083144;28;20557;-68
2022/06/07 09:53:10;;;;;;;1.25;1.15;;;14.40;99.90;;;;;;5071201;28;20056;-68
2022/06/07 09:55:47;;;;;;;4.60;1.25;;;14.40;99.90;;;;;;5085657;28;20484;-68
2022/06/07 09:58:32;;;;;;;4.82;1.85;;;14.50;99.90;;;;;;5083308;28;20061;-69
2022/06/07 10:01:23;;;;;;;5.63;1.20;;;14.60;99.90;;;;;;5091777;28;20101;-68
2022/06/07 10:04:21;;;;;;;4.90;1.30;;;14.80;99.90;;;;;;5083945;28;20559;-68
2022/06/07 10:07:00;;;;;;;2.20;1.00;;;15.10;99.90;;;;;;5052288;28;20060;-67
2022/06/07 10:09:30;;;;;;;5.07;1.17;;;15.40;99.90;;;;;;5051657;28;20041;-68
2022/06/07 10:12:26;;;;;;;3.83;1.00;;;15.50;99.90;;;;;;5051248;28;20456;-68
2022/06/07 10:15:19;;;;;;;0.82;0.60;;;15.70;99.90;;;;;;5081188;28;20111;-68
2022/06/07 10:18:07;;;;;;;0.90;0.80;;;15.90;99.90;;;;;;5091749;28;20044;-68
2022/06/07 10:20:58;;;;;;;2.22;0.50;;;15.90;99.90;;;;;;5088863;28;20062;-68
2022/06/07 10:23:41;;;;;;;0.90;0.43;;;16.00;99.90;;;;;;5083220;28;20063;-68
2022/06/07 10:26:31;;;;;;;2.45;0.50;;;16.20;99.90;;;;;;5091665;28;20050;-68
2022/06/07 10:29:23;;;;;;;3.03;0.60;;;16.30;99.90;;;;;;5091513;28;20065;-68
2022/06/07 10:32:02;;;;;;;4.20;1.05;;;16.40;99.90;;;;;;5080606;28;20044;-68
2022/06/07 10:34:46;;;;;;;0.30;0.30;;;16.20;99.90;;;;;;5061712;28;20150;-68
2022/06/07 10:37:21;;;;;;;1.88;0.40;;;16.10;99.90;;;;;;5062975;28;20044;-68
2022/06/07 10:39:55;;;;;;;0.90;0.30;;;15.90;99.90;;;;;;5064682;28;20045;-68
2022/06/07 10:42:33;;;;;;;3.33;0.40;;;16.00;99.90;;;;;;5061681;28;20382;-68
2022/06/07 10:45:19;;;;;;;1.52;0.40;;;16.00;99.90;;;;;;5062025;28;20443;-68
2022/06/07 10:47:57;;;;;;;2.40;0.80;;;16.10;99.90;;;;;;5062644;28;20048;-68
2022/06/07 10:50:27;;;;;;;;;;;16.10;99.90;;;;;;5061918;28;20036;-68
2022/06/07 10:53:03;;;;;;;5.85;0.55;;;16.20;99.90;;;;;;5061522;28;20269;-68
2022/06/07 10:55:34;;;;;;;3.83;0.47;;;16.30;99.90;;;;;;5061800;28;20033;-68
2022/06/07 10:58:30;;;;;;;3.45;0.70;;;16.30;99.90;;;;;;5062510;28;20095;-68
2022/06/07 11:01:06;;;;;;;0.75;0.60;;;16.20;99.90;;;;;;5065828;28;20393;-68
2022/06/07 11:04:09;;;;;;;2.83;0.40;;;16.30;99.90;;;;;;5062072;28;20074;-69
2022/06/07 11:09:53;;;;;;;1.92;0.50;;;16.30;99.90;;;;;;5074966;28;20542;-68
2022/06/07 11:12:33;;;;;;;2.00;0.70;;;16.40;99.90;;;;;;5082028;28;20037;-68
2022/06/07 11:15:13;;;;;;;3.33;0.43;;;16.40;99.90;;;;;;5041383;28;20056;-69
2022/06/07 11:17:58;;;;;;;1.33;0.50;;;16.50;99.90;;;;;;5056853;28;20459;-69
2022/06/07 11:20:29;;;;;;;0.63;0.50;;;16.50;99.90;;;;;;5070773;28;20127;-69
2022/06/07 11:23:23;;;;;;;0.73;0.38;;;16.50;99.90;;;;;;5059347;28;20086;-69
2022/06/07 11:26:06;;;;;;;6.90;0.60;;;16.60;99.90;;;;;;5063319;28;20041;-69
2022/06/07 11:28:39;;;;;;;0.70;0.50;;;16.60;99.90;;;;;;5057490;28;20041;-69
2022/06/07 11:31:20;;;;;;;1.10;0.50;;;16.60;99.90;;;;;;5057525;28;20559;-69
2022/06/07 11:33:51;;;;;;;4.47;0.60;;;16.60;99.90;;;;;;5058224;28;20045;-69
2022/06/07 11:36:36;;;;;;;5.63;0.60;;;16.60;99.90;;;;;;5057286;28;20036;-70
2022/06/07 11:42:35;;;;;;;2.28;0.70;;;16.60;99.90;;;;;;5081130;28;20551;-72
2022/06/07 11:45:02;;;;;;;2.90;0.80;;;16.50;99.90;;;;;;5065876;28;20063;-73
2022/06/07 11:47:46;;;;;;;1.70;1.08;;;16.30;99.90;;;;;;5078217;28;20052;-72
2022/06/07 11:50:27;;;;;;;1.02;0.98;;;16.10;99.90;;;;;;5075135;28;20485;-72
2022/06/07 11:53:17;;;;;;;0.60;0.60;;;16.10;99.90;;;;;;5079454;28;20518;-72
2022/06/07 11:55:45;;;;;;;2.92;0.77;;;16.00;99.90;;;;;;5082722;28;20048;-72
2022/06/07 11:58:12;;;;;;;1.00;0.70;;;16.20;99.90;;;;;;5073084;28;20094;-72
2022/06/07 12:00:43;;;;;;;4.60;0.90;;;16.30;99.90;;;;;;5077910;28;20040;-72
2022/06/07 12:03:24;;;;;;;1.00;0.80;;;16.50;99.90;;;;;;5075225;28;20101;-72
2022/06/07 12:05:55;;;;;;;1.77;0.80;;;16.60;99.90;;;;;;5073036;28;20048;-72
2022/06/07 12:08:30;;;;;;;1.50;1.17;;;16.80;99.90;;;;;;5077278;28;20048;-73
2022/06/07 12:11:02;;;;;;;2.72;1.30;;;16.90;99.90;;;;;;5078076;28;20040;-72
2022/06/07 12:13:52;;;;;;;1.27;1.10;;;16.90;99.90;;;;;;5072582;28;20448;-72
2022/06/07 12:16:27;;;;;;;1.40;1.10;;;16.90;99.90;;;;;;5078598;28;20044;-71
2022/06/07 12:18:57;;;;;;;1.33;1.10;;;17.00;99.90;;;;;;5079130;28;20042;-72
2022/06/07 12:21:25;;;;;;;1.77;1.10;;;16.90;99.90;;;;;;5074139;28;20443;-72
2022/06/07 12:24:11;;;;;;;3.47;1.35;;;16.80;99.90;;;;;;5074643;28;20036;-72
2022/06/07 12:26:37;;;;;;;1.40;1.30;;;16.70;99.90;;;;;;5082126;28;20052;-72
2022/06/07 12:29:07;;;;;;;1.85;1.15;;;16.70;99.90;;;;;;5100545;28;20062;-69
2022/06/07 12:31:43;;;;;;;4.53;1.40;;;16.70;99.90;;;;;;5099560;28;20037;-71
2022/06/07 12:34:26;;;;;;;3.60;1.48;;;16.70;99.90;;;;;;5078074;28;20090;-71
2022/06/07 12:37:16;;;;;;;1.60;1.10;;;16.70;99.90;;;;;;5083616;28;20051;-71
2022/06/07 12:39:57;;;;;;;3.13;1.02;;;16.70;99.90;;;;;;5084920;28;20489;-71
2022/06/07 12:42:32;;;;;;;2.20;1.02;;;16.70;99.90;;;;;;5093370;28;20149;-71
2022/06/07 12:45:36;;;;;;;0.90;0.80;;;16.70;99.90;;;;;;5093369;28;20071;-71
2022/06/07 12:48:12;;;;;;;1.27;1.13;;;16.70;99.90;;;;;;4993904;28;20057;-71
2022/06/07 12:50:42;;;;;;;1.70;1.00;;;16.70;99.90;;;;;;5063217;28;20049;-69
2022/06/07 12:53:27;;;;;;;1.75;1.00;;;16.70;99.90;;;;;;5081052;28;20441;-71
2022/06/07 12:56:11;;;;;;;2.00;1.00;;;16.80;99.90;;;;;;5091185;28;20089;-72
2022/06/07 12:58:48;;;;;;;0.70;0.70;;;16.90;99.90;;;;;;5073062;28;20052;-72
2022/06/07 13:01:25;;;;;;;1.88;0.80;;;17.10;99.90;;;;;;5082004;28;20475;-68
2022/06/07 13:03:56;;;;;;;5.47;1.00;;;17.20;99.90;;;;;;5081094;28;20379;-68
2022/06/07 13:06:25;;;;;;;8.70;2.45;;;17.20;99.90;;;;;;5080812;28;20094;-68
2022/06/07 13:08:58;;;;;;;1.40;0.90;;;17.20;99.90;;;;;;5091888;28;20052;-68
2022/06/07 13:11:25;;;;;;;1.13;1.00;;;17.10;99.90;;;;;;5091537;28;20082;-68
2022/06/07 13:13:52;;;;;;;1.00;0.93;;;17.20;99.90;;;;;;5079181;28;20055;-68
2022/06/07 13:16:19;;;;;;;;;;;17.30;99.90;;;;;;5075736;28;20421;-68
2022/06/07 13:19:20;;;;;;;2.65;1.20;;;17.40;99.90;;;;;;5051282;28;19924;-68
2022/06/07 13:21:47;;;;;;;3.72;1.42;;;17.60;99.90;;;;;;5068835;28;20044;-68
2022/06/07 13:24:20;;;;;;;3.47;1.40;;;17.50;99.90;;;;;;5079909;28;20044;-69
2022/06/07 13:26:50;;;;;;;2.80;1.30;;;17.50;99.90;;;;;;5071963;28;20116;-68
2022/06/07 13:29:31;;;;;;;1.50;1.40;;;17.50;99.90;;;;;;5072035;28;20059;-69
2022/06/07 13:32:04;;;;;;;4.97;1.75;;;17.50;99.90;;;;;;5061868;28;20420;-69
2022/06/07 13:34:36;;;;;;;1.65;1.55;;;17.50;99.90;;;;;;5071941;28;20095;-69
2022/06/07 13:37:19;;;;;;;8.23;2.00;;;17.70;99.90;;;;;;5071936;28;20477;-69
2022/06/07 13:40:04;;;;;;;2.45;1.80;;;17.80;99.90;;;;;;5070679;28;20040;-69
2022/06/07 13:42:35;;;;;;;2.03;1.90;;;17.90;99.90;;;;;;5080186;28;20044;-69